createdAt,value
2023-04-29T00:02:17.679Z,13.93
2023-04-29T00:04:46.141Z,14.48
2023-04-29T00:07:16.016Z,15.05
2023-04-29T00:09:45.743Z,15.50
2023-04-29T00:12:14.131Z,15.73
2023-04-29T00:14:43.440Z,16.42
2023-04-29T00:17:12.196Z,17.38
2023-04-29T00:19:41.589Z,16.73
2023-04-29T00:22:09.996Z,16.83
2023-04-29T00:24:38.527Z,18.08
2023-04-29T00:27:08.194Z,17.52
2023-04-29T00:29:36.975Z,16.95
2023-04-29T00:32:05.566Z,18.77
2023-04-29T00:34:34.010Z,17.92
2023-04-29T00:37:02.218Z,18.60
2023-04-29T00:39:30.480Z,18.65
2023-04-29T00:42:00.598Z,19.00
2023-04-29T00:44:30.481Z,19.67
2023-04-29T00:46:59.444Z,18.48
2023-04-29T00:49:28.372Z,19.98
2023-04-29T00:51:59.111Z,21.33
2023-04-29T00:54:27.540Z,20.83
2023-04-29T00:56:57.291Z,20.67
2023-04-29T00:59:32.212Z,21.30
2023-04-29T01:02:04.265Z,20.75
2023-04-29T01:04:32.701Z,21.45
2023-04-29T01:07:07.760Z,21.65
2023-04-29T01:09:47.629Z,21.95
2023-04-29T01:12:23.158Z,23.73
2023-04-29T01:14:59.778Z,22.25
2023-04-29T01:17:32.872Z,21.92
2023-04-29T01:20:03.464Z,22.25
2023-04-29T01:22:31.948Z,22.60
2023-04-29T01:25:02.257Z,22.17
2023-04-29T01:27:34.521Z,25.10
2023-04-29T01:30:11.690Z,20.40
2023-04-29T01:32:49.129Z,23.58
2023-04-29T01:35:30.325Z,22.45
2023-04-29T01:38:07.798Z,23.08
2023-04-29T01:40:44.565Z,22.85
2023-04-29T01:43:15.900Z,22.00
2023-04-29T01:45:45.180Z,23.30
2023-04-29T01:48:14.404Z,20.95
2023-04-29T01:50:42.832Z,21.55
2023-04-29T01:53:11.156Z,24.35
2023-04-29T01:55:40.971Z,21.35
2023-04-29T01:58:09.265Z,21.55
2023-04-29T02:00:38.261Z,21.42
2023-04-29T02:03:06.674Z,20.90
2023-04-29T02:05:36.050Z,21.60
2023-04-29T02:08:04.598Z,23.50
2023-04-29T02:10:33.409Z,22.27
2023-04-29T02:13:03.540Z,22.67
2023-04-29T02:15:33.359Z,23.60
2023-04-29T02:18:02.348Z,23.30
2023-04-29T02:20:37.052Z,23.20
2023-04-29T02:23:05.672Z,22.13
2023-04-29T02:25:34.143Z,22.73
2023-04-29T02:28:04.065Z,21.48
2023-04-29T02:30:32.476Z,22.45
2023-04-29T02:33:00.749Z,23.73
2023-04-29T02:35:29.072Z,23.40
2023-04-29T02:37:57.682Z,23.38
2023-04-29T02:40:27.352Z,22.23
2023-04-29T02:42:55.776Z,24.00
2023-04-29T02:45:25.774Z,24.90
2023-04-29T02:47:54.215Z,24.60
2023-04-29T02:50:23.019Z,26.33
2023-04-29T02:52:51.856Z,26.27
2023-04-29T02:55:20.434Z,27.10
2023-04-29T02:57:48.796Z,25.85
2023-04-29T03:00:17.299Z,26.30
2023-04-29T03:02:47.295Z,27.25
2023-04-29T03:05:16.038Z,25.90
2023-04-29T03:07:44.370Z,26.20
2023-04-29T03:10:13.081Z,26.67
2023-04-29T03:12:41.542Z,27.55
2023-04-29T03:15:10.826Z,29.05
2023-04-29T03:17:39.205Z,29.13
2023-04-29T03:20:11.911Z,28.35
2023-04-29T03:22:40.282Z,28.23
2023-04-29T03:25:10.591Z,28.08
2023-04-29T03:27:39.236Z,26.85
2023-04-29T03:30:09.020Z,27.35
2023-04-29T03:32:37.353Z,27.10
2023-04-29T03:35:06.046Z,30.80
2023-04-29T03:37:35.977Z,28.17
2023-04-29T03:40:04.434Z,29.48
2023-04-29T03:42:32.761Z,25.40
2023-04-29T03:45:01.092Z,28.38
2023-04-29T03:47:29.604Z,26.63
2023-04-29T03:49:57.922Z,26.40
2023-04-29T03:52:26.310Z,26.85
2023-04-29T03:54:56.397Z,25.85
2023-04-29T03:57:24.684Z,28.15
2023-04-29T03:59:53.232Z,26.95
2023-04-29T04:02:21.929Z,27.23
2023-04-29T04:04:50.585Z,28.77
2023-04-29T04:07:18.984Z,26.50
2023-04-29T04:09:47.321Z,25.20
2023-04-29T04:12:17.207Z,26.02
2023-04-29T04:14:45.497Z,26.00
2023-04-29T04:17:13.869Z,26.85
2023-04-29T04:19:42.120Z,29.67
2023-04-29T04:22:12.938Z,28.73
2023-04-29T04:24:41.494Z,26.27
2023-04-29T04:27:09.928Z,27.35
2023-04-29T04:29:39.869Z,26.20
2023-04-29T04:32:08.277Z,27.55
2023-04-29T04:34:36.555Z,27.25
2023-04-29T04:37:04.810Z,23.85
2023-04-29T04:39:33.125Z,24.00
2023-04-29T04:42:03.852Z,25.35
2023-04-29T04:44:32.728Z,24.08
2023-04-29T04:47:02.448Z,26.20
2023-04-29T04:49:31.431Z,26.60
2023-04-29T04:51:59.936Z,24.48
2023-04-29T04:54:28.539Z,23.05
2023-04-29T04:56:56.773Z,29.63
2023-04-29T04:59:25.565Z,26.80
2023-04-29T05:01:53.900Z,32.13
2023-04-29T05:04:23.827Z,30.83
2023-04-29T05:06:52.118Z,27.42
2023-04-29T05:09:20.687Z,28.92
2023-04-29T05:11:49.181Z,39.17
2023-04-29T05:14:18.203Z,29.23
2023-04-29T05:16:46.825Z,36.67
2023-04-29T05:19:15.292Z,34.50
2023-04-29T05:21:45.589Z,32.70
2023-04-29T05:24:14.168Z,34.03
2023-04-29T05:26:44.161Z,27.33
2023-04-29T05:29:12.735Z,26.58
2023-04-29T05:31:41.123Z,26.10
2023-04-29T05:34:09.449Z,26.02
2023-04-29T05:36:37.762Z,22.73
2023-04-29T05:39:07.887Z,24.00
2023-04-29T05:41:36.894Z,22.80
2023-04-29T05:44:05.280Z,20.30
2023-04-29T05:46:33.738Z,20.75
2023-04-29T05:49:02.331Z,20.77
2023-04-29T05:51:32.193Z,19.08
2023-04-29T05:54:00.587Z,20.05
2023-04-29T05:56:30.508Z,19.58
2023-04-29T05:58:58.923Z,19.80
2023-04-29T06:01:27.277Z,19.17
2023-04-29T06:03:56.116Z,20.00
2023-04-29T06:06:32.535Z,19.70
2023-04-29T06:09:27.418Z,19.08
2023-04-29T06:11:58.932Z,19.00
2023-04-29T06:14:27.718Z,17.75
2023-04-29T06:16:56.432Z,19.35
2023-04-29T06:19:25.198Z,18.27
2023-04-29T06:21:53.664Z,16.98
2023-04-29T06:24:23.261Z,16.63
2023-04-29T06:26:51.689Z,17.42
2023-04-29T06:29:21.599Z,17.40
2023-04-29T06:31:50.054Z,17.58
2023-04-29T06:34:18.426Z,17.75
2023-04-29T06:36:46.710Z,18.70
2023-04-29T06:39:15.160Z,19.40
2023-04-29T06:41:43.700Z,20.85
2023-04-29T06:44:12.128Z,18.35
2023-04-29T06:46:47.887Z,15.38
2023-04-29T06:49:16.208Z,15.15
2023-04-29T06:51:44.455Z,15.73
2023-04-29T06:54:12.719Z,15.65
2023-04-29T06:56:40.967Z,15.70
2023-04-29T06:59:10.876Z,14.52
2023-04-29T07:01:41.808Z,15.40
2023-04-29T07:04:13.794Z,15.65
2023-04-29T07:06:42.309Z,14.60
2023-04-29T07:09:12.266Z,13.25
2023-04-29T07:11:40.763Z,14.50
2023-04-29T07:14:09.290Z,13.68
2023-04-29T07:16:37.898Z,14.65
2023-04-29T07:19:06.313Z,12.82
2023-04-29T07:21:36.391Z,13.95
2023-04-29T07:24:05.110Z,13.07
2023-04-29T07:26:33.552Z,13.80
2023-04-29T07:29:02.243Z,12.50
2023-04-29T07:31:34.334Z,13.63
2023-04-29T07:34:04.128Z,13.15
2023-04-29T07:36:33.137Z,15.18
2023-04-29T07:39:03.485Z,14.07
2023-04-29T07:41:31.826Z,14.25
2023-04-29T07:44:00.245Z,15.50
2023-04-29T07:46:28.592Z,14.40
2023-04-29T07:48:58.437Z,14.70
2023-04-29T07:51:29.223Z,15.10
2023-04-29T07:53:57.854Z,13.70
2023-04-29T07:56:27.707Z,14.40
2023-04-29T07:58:56.210Z,14.05
2023-04-29T08:01:24.648Z,14.77
2023-04-29T08:03:53.422Z,14.43
2023-04-29T08:06:22.459Z,15.80
2023-04-29T08:08:51.181Z,16.92
2023-04-29T08:11:20.723Z,16.60
2023-04-29T08:13:53.468Z,16.05
2023-04-29T08:16:22.541Z,17.67
2023-04-29T08:18:51.065Z,17.63
2023-04-29T08:21:19.727Z,16.10
2023-04-29T08:23:48.320Z,14.73
2023-04-29T08:26:19.952Z,13.60
2023-04-29T08:28:49.909Z,14.20
2023-04-29T08:31:18.812Z,13.47
2023-04-29T08:33:47.653Z,13.63
2023-04-29T08:36:19.237Z,14.10
2023-04-29T08:38:49.052Z,14.30
2023-04-29T08:41:17.423Z,15.68
2023-04-29T08:43:45.976Z,16.48
2023-04-29T08:46:16.929Z,16.38
2023-04-29T08:48:46.198Z,15.57
2023-04-29T08:51:14.788Z,14.85
2023-04-29T08:53:46.218Z,13.20
2023-04-29T08:56:20.777Z,12.15
2023-04-29T08:58:54.611Z,13.00
2023-04-29T09:01:25.385Z,11.30
2023-04-29T09:04:03.778Z,11.93
2023-04-29T09:06:33.282Z,11.05
2023-04-29T09:09:07.987Z,10.25
2023-04-29T09:11:38.398Z,11.93
2023-04-29T09:14:09.749Z,13.55
2023-04-29T09:16:39.553Z,11.70
2023-04-29T09:19:10.998Z,12.18
2023-04-29T09:21:39.718Z,11.02
2023-04-29T09:24:08.031Z,10.75
2023-04-29T09:26:45.674Z,12.60
2023-04-29T09:29:16.395Z,11.90
2023-04-29T09:31:46.635Z,11.35
2023-04-29T09:34:18.571Z,11.63
2023-04-29T09:36:48.551Z,11.93
2023-04-29T09:39:18.129Z,11.85
2023-04-29T09:42:02.538Z,11.82
2023-04-29T09:44:34.472Z,9.27
2023-04-29T09:47:05.706Z,9.90
2023-04-29T09:49:37.475Z,5.23
2023-04-29T09:52:11.123Z,4.80
2023-04-29T09:54:42.982Z,4.20
2023-04-29T09:57:19.483Z,4.33
2023-04-29T09:59:48.518Z,4.73
2023-04-29T10:02:19.840Z,5.23
2023-04-29T10:04:56.838Z,4.50
2023-04-29T10:07:28.949Z,4.33
2023-04-29T10:09:58.161Z,4.03
2023-04-29T10:12:27.511Z,4.60
2023-04-29T10:15:04.382Z,5.10
2023-04-29T10:17:42.778Z,4.80
2023-04-29T10:20:16.519Z,4.90
2023-04-29T10:22:48.849Z,5.13
2023-04-29T10:25:18.469Z,4.93
2023-04-29T10:27:49.385Z,4.70
2023-04-29T10:30:20.260Z,5.67
2023-04-29T10:32:52.687Z,5.57
2023-04-29T10:35:25.759Z,5.10
2023-04-29T10:37:55.643Z,6.87
2023-04-29T10:40:29.289Z,6.50
2023-04-29T10:42:58.504Z,6.10
2023-04-29T10:45:28.908Z,5.50
2023-04-29T10:48:40.204Z,6.57
2023-04-29T10:51:08.632Z,7.32
2023-04-29T10:53:37.345Z,8.30
2023-04-29T10:56:09.966Z,6.25
2023-04-29T10:58:47.393Z,6.45
2023-04-29T11:01:20.355Z,6.15
2023-04-29T11:03:58.697Z,6.28
2023-04-29T11:06:41.171Z,6.75
2023-04-29T11:09:14.675Z,7.40
2023-04-29T11:11:58.431Z,7.53
2023-04-29T11:14:28.698Z,7.38
2023-04-29T11:17:00.283Z,6.17
2023-04-29T11:19:37.473Z,7.20
2023-04-29T11:22:12.909Z,4.93
2023-04-29T11:24:58.569Z,6.00
2023-04-29T11:27:28.871Z,5.37
2023-04-29T11:30:02.433Z,6.20
2023-04-29T11:32:44.743Z,6.73
2023-04-29T11:35:16.367Z,7.33
2023-04-29T11:37:46.161Z,8.10
2023-04-29T11:40:15.673Z,9.00
2023-04-29T11:42:47.429Z,9.32
2023-04-29T11:45:16.178Z,9.57
2023-04-29T11:47:46.773Z,10.30
2023-04-29T11:50:20.587Z,12.43
2023-04-29T11:52:53.165Z,12.00
2023-04-29T11:55:22.725Z,11.57
2023-04-29T11:57:54.420Z,10.50
2023-04-29T12:00:22.890Z,9.50
2023-04-29T12:02:54.671Z,10.98
2023-04-29T12:05:27.849Z,10.48
2023-04-29T12:07:59.810Z,9.65
2023-04-29T12:10:28.760Z,11.18
2023-04-29T12:12:57.256Z,9.68
2023-04-29T12:15:25.898Z,10.63
2023-04-29T12:17:54.594Z,8.95
2023-04-29T12:20:25.060Z,8.70
2023-04-29T12:22:54.652Z,8.38
2023-04-29T12:25:31.717Z,8.50
2023-04-29T12:28:15.648Z,8.98
2023-04-29T12:30:45.780Z,8.30
2023-04-29T12:33:19.991Z,8.57
2023-04-29T12:35:50.523Z,8.13
2023-04-29T12:38:22.685Z,9.68
2023-04-29T12:40:52.211Z,9.93
2023-04-29T12:43:20.633Z,10.00
2023-04-29T12:45:49.960Z,10.25
2023-04-29T12:48:29.369Z,10.50
2023-04-29T12:51:02.316Z,11.02
2023-04-29T12:53:32.110Z,10.93
2023-04-29T12:56:01.025Z,10.95
2023-04-29T12:58:31.237Z,11.32
2023-04-29T13:00:59.752Z,10.63
2023-04-29T13:03:28.664Z,10.60
2023-04-29T13:05:58.033Z,11.45
2023-04-29T13:08:29.452Z,10.77
2023-04-29T13:10:58.006Z,10.57
2023-04-29T13:13:27.737Z,10.10
2023-04-29T13:15:56.550Z,9.07
2023-04-29T13:18:25.208Z,8.15
2023-04-29T13:20:54.032Z,7.00
2023-04-29T13:23:22.862Z,6.97
2023-04-29T13:25:53.922Z,7.10
2023-04-29T13:28:22.886Z,9.07
2023-04-29T13:30:52.491Z,8.43
2023-04-29T13:33:21.070Z,7.05
2023-04-29T13:35:50.502Z,6.90
2023-04-29T13:38:19.287Z,5.95
2023-04-29T13:40:51.185Z,6.00
2023-04-29T13:43:32.975Z,5.55
2023-04-29T13:46:07.757Z,5.88
2023-04-29T13:49:14.254Z,5.28
2023-04-29T13:52:09.581Z,6.18
2023-04-29T14:04:23.770Z,6.75
2023-04-29T14:06:52.655Z,7.10
2023-04-29T14:09:21.520Z,8.07
2023-04-29T14:11:50.894Z,6.75
2023-04-29T14:14:21.110Z,6.43
2023-04-29T14:16:49.556Z,7.00
2023-04-29T14:19:18.164Z,6.53
2023-04-29T14:21:49.202Z,7.60
2023-04-29T14:24:17.595Z,7.53
2023-04-29T14:26:46.009Z,8.18
2023-04-29T14:29:15.871Z,9.30
2023-04-29T14:31:47.031Z,9.85
2023-04-29T14:34:16.787Z,11.82
2023-04-29T14:36:47.978Z,12.85
2023-04-29T14:39:27.737Z,12.30
2023-04-29T14:41:57.345Z,11.82
2023-04-29T14:44:26.291Z,11.52
2023-04-29T14:46:56.147Z,12.18
2023-04-29T14:49:24.457Z,13.63
2023-04-29T14:51:52.887Z,13.77
2023-04-29T14:54:21.407Z,14.75
2023-04-29T14:56:58.528Z,14.68
2023-04-29T14:59:31.164Z,15.10
2023-04-29T15:02:04.881Z,12.65
2023-04-29T15:04:34.416Z,12.52
2023-04-29T15:07:12.293Z,10.27
2023-04-29T15:09:44.238Z,9.48
2023-04-29T15:12:20.831Z,9.60
2023-04-29T15:14:54.238Z,10.15
2023-04-29T15:17:24.560Z,9.30
2023-04-29T15:19:53.547Z,9.00
2023-04-29T15:22:23.159Z,9.57
2023-04-29T15:24:54.773Z,9.60
2023-04-29T15:27:33.214Z,8.80
2023-04-29T15:33:42.593Z,10.52
2023-04-29T15:36:11.500Z,10.77
2023-04-29T15:38:43.939Z,12.65
2023-04-29T15:41:13.512Z,14.30
2023-04-29T15:43:45.631Z,12.90
2023-04-29T15:48:58.762Z,13.98
2023-04-29T15:51:27.786Z,13.82
2023-04-29T15:53:56.853Z,16.10
2023-04-29T15:56:26.644Z,15.35
2023-04-29T15:58:58.399Z,16.67
2023-04-29T16:01:28.434Z,18.52
2023-04-29T16:04:06.071Z,19.30
2023-04-29T16:06:40.966Z,22.42
2023-04-29T16:09:19.095Z,23.83
2023-04-29T16:15:45.046Z,24.50
2023-04-29T16:18:23.864Z,22.58
2023-04-29T16:20:54.333Z,22.58
2023-04-29T16:23:23.160Z,27.95
2023-04-29T16:25:57.777Z,28.83
2023-04-29T16:28:26.674Z,30.30
2023-04-29T16:30:56.244Z,30.88
2023-04-29T16:33:25.438Z,29.58
2023-04-29T16:36:09.508Z,26.20
2023-04-29T16:38:38.607Z,28.08
2023-04-29T16:41:10.625Z,26.75
2023-04-29T16:43:39.684Z,26.13
2023-04-29T16:46:09.252Z,27.85
2023-04-29T16:48:38.145Z,27.52
2023-04-29T16:51:08.598Z,26.40
2023-04-29T16:53:37.514Z,28.08
2023-04-29T16:56:06.995Z,26.67
2023-04-29T16:58:36.374Z,28.00
2023-04-29T17:01:05.488Z,28.05
2023-04-29T17:03:37.999Z,28.38
2023-04-29T17:06:08.297Z,28.17
2023-04-29T17:08:37.616Z,27.30
2023-04-29T17:11:11.154Z,26.63
2023-04-29T17:13:40.662Z,26.40
2023-04-29T17:16:10.000Z,27.33
2023-04-29T17:18:38.868Z,26.75
2023-04-29T17:21:09.194Z,27.45
2023-04-29T17:23:40.583Z,26.42
2023-04-29T17:26:11.648Z,25.30
2023-04-29T17:28:40.293Z,26.45
2023-04-29T17:31:08.619Z,28.65
2023-04-29T17:33:39.740Z,26.38
2023-04-29T17:36:16.088Z,26.77
2023-04-29T17:38:47.745Z,27.38
2023-04-29T17:41:16.362Z,26.05
2023-04-29T17:43:45.093Z,26.80
2023-04-29T17:46:13.679Z,29.93
2023-04-29T17:48:43.442Z,28.75
2023-04-29T17:51:17.033Z,26.45
2023-04-29T17:53:46.563Z,27.80
2023-04-29T17:56:19.319Z,27.08
2023-04-29T17:58:49.098Z,26.00
2023-04-29T18:01:17.896Z,28.35
2023-04-29T18:03:51.135Z,28.00
2023-04-29T18:06:21.676Z,26.92
2023-04-29T18:08:53.143Z,28.27
2023-04-29T18:11:21.730Z,27.27
2023-04-29T18:13:50.547Z,29.42
2023-04-29T18:16:19.309Z,28.40
2023-04-29T18:18:48.003Z,28.88
2023-04-29T18:21:23.436Z,28.63
2023-04-29T18:23:52.441Z,27.33
2023-04-29T18:26:21.722Z,27.70
2023-04-29T18:28:50.470Z,27.42
2023-04-29T18:31:20.238Z,26.90
2023-04-29T18:33:49.905Z,26.98
2023-04-29T18:36:23.695Z,26.90
2023-04-29T18:38:52.301Z,27.08
2023-04-29T18:41:21.128Z,25.63
2023-04-29T18:43:49.735Z,24.98
2023-04-29T18:46:18.587Z,24.77
2023-04-29T18:48:47.380Z,24.77
2023-04-29T18:51:15.708Z,25.90
2023-04-29T18:53:45.863Z,21.58
2023-04-29T18:56:17.262Z,24.75
2023-04-29T18:58:45.804Z,24.52
2023-04-29T19:01:14.410Z,22.42
2023-04-29T19:03:42.922Z,21.80
2023-04-29T19:06:11.381Z,23.38
2023-04-29T19:08:40.188Z,21.92
2023-04-29T19:11:10.261Z,21.23
2023-04-29T19:13:38.891Z,21.27
2023-04-29T19:16:08.594Z,19.90
2023-04-29T19:18:40.437Z,22.02
2023-04-29T19:21:10.404Z,21.08
2023-04-29T19:23:39.069Z,20.42
2023-04-29T19:26:07.650Z,19.10
2023-04-29T19:28:52.973Z,20.75
2023-04-29T19:31:24.360Z,18.75
2023-04-29T19:33:53.218Z,18.63
2023-04-29T19:36:25.497Z,20.77
2023-04-29T19:38:53.886Z,17.90
2023-04-29T19:41:24.073Z,18.92
2023-04-29T19:43:53.882Z,18.55
2023-04-29T19:46:28.665Z,18.30
2023-04-29T19:48:57.185Z,17.85
2023-04-29T19:51:25.830Z,17.70
2023-04-29T19:53:56.598Z,16.55
2023-04-29T19:56:25.332Z,18.05
2023-04-29T19:58:55.689Z,19.08
2023-04-29T20:01:24.470Z,18.30
2023-04-29T20:03:53.093Z,16.90
2023-04-29T20:06:24.972Z,16.50
2023-04-29T20:08:53.389Z,17.50
2023-04-29T20:11:22.816Z,18.55
2023-04-29T20:13:52.351Z,17.20
2023-04-29T20:16:23.439Z,17.60
2023-04-29T20:18:52.102Z,17.85
2023-04-29T20:21:20.518Z,17.88
2023-04-29T20:23:49.068Z,18.95
2023-04-29T20:26:17.911Z,18.80
2023-04-29T20:28:48.113Z,19.30
2023-04-29T20:31:17.085Z,18.95
2023-04-29T20:33:49.159Z,19.60
2023-04-29T20:36:17.971Z,20.30
2023-04-29T20:38:51.863Z,19.20
2023-04-29T20:41:23.717Z,20.00
2023-04-29T20:43:52.412Z,18.95
2023-04-29T20:46:26.078Z,18.88
2023-04-29T20:48:56.584Z,19.80
2023-04-29T20:51:25.472Z,19.67
2023-04-29T20:53:54.006Z,20.73
2023-04-29T20:56:22.506Z,18.27
2023-04-29T20:58:54.192Z,18.75
2023-04-29T21:01:25.784Z,18.73
2023-04-29T21:03:55.902Z,20.65
2023-04-29T21:06:24.434Z,19.73
2023-04-29T21:08:52.881Z,19.95
2023-04-29T21:11:25.000Z,19.77
2023-04-29T21:13:53.377Z,19.17
2023-04-29T21:16:22.018Z,19.52
2023-04-29T21:18:50.330Z,19.23
2023-04-29T21:21:20.098Z,20.25
2023-04-29T21:23:48.403Z,19.17
2023-04-29T21:26:17.059Z,19.15
2023-04-29T21:28:45.653Z,18.90
2023-04-29T21:31:16.613Z,20.00
2023-04-29T21:33:45.965Z,19.65
2023-04-29T21:36:15.917Z,18.23
2023-04-29T21:38:46.538Z,19.00
2023-04-29T21:41:21.008Z,19.20
2023-04-29T21:43:50.688Z,17.05
2023-04-29T21:46:22.589Z,16.90
2023-04-29T21:48:51.463Z,18.02
2023-04-29T21:51:22.902Z,18.25
2023-04-29T21:53:53.148Z,18.10
2023-04-29T21:56:22.790Z,19.17
2023-04-29T21:58:51.311Z,18.38
2023-04-29T22:01:40.676Z,18.73
2023-04-29T22:04:09.227Z,17.33
2023-04-29T22:06:38.223Z,17.95
2023-04-29T22:09:08.798Z,16.60
2023-04-29T22:11:37.372Z,17.45
2023-04-29T22:14:05.965Z,16.60
2023-04-29T22:16:36.072Z,17.25
2023-04-29T22:19:05.920Z,16.25
2023-04-29T22:21:34.479Z,15.95
2023-04-29T22:24:02.970Z,16.95
2023-04-29T22:26:32.858Z,16.05
2023-04-29T22:29:02.292Z,16.80
2023-04-29T22:31:31.918Z,15.98
2023-04-29T22:34:00.325Z,16.33
2023-04-29T22:36:29.015Z,15.77
2023-04-29T22:38:57.691Z,15.13
2023-04-29T22:41:27.005Z,16.70
2023-04-29T22:43:58.071Z,16.58
2023-04-29T22:46:27.430Z,16.05
2023-04-29T22:48:56.170Z,16.10
2023-04-29T22:51:25.117Z,15.13
2023-04-29T22:53:54.394Z,16.27
2023-04-29T22:56:24.706Z,17.38
2023-04-29T22:58:53.597Z,16.67
2023-04-29T23:01:23.602Z,17.08
2023-04-29T23:03:52.349Z,17.35
2023-04-29T23:06:21.437Z,16.67
2023-04-29T23:08:50.145Z,16.55
2023-04-29T23:11:18.756Z,16.70
2023-04-29T23:13:47.513Z,16.25
2023-04-29T23:16:16.772Z,16.40
2023-04-29T23:18:47.273Z,15.65
2023-04-29T23:21:16.026Z,15.23
2023-04-29T23:23:44.792Z,15.90
2023-04-29T23:26:13.622Z,16.33
2023-04-29T23:28:43.563Z,15.27
2023-04-29T23:31:12.408Z,15.02
2023-04-29T23:33:41.008Z,16.02
2023-04-29T23:36:11.602Z,15.07
2023-04-29T23:38:40.570Z,15.25
2023-04-29T23:41:09.268Z,15.48
2023-04-29T23:43:38.166Z,17.00
2023-04-29T23:46:07.132Z,15.68
2023-04-29T23:48:36.181Z,14.38
2023-04-29T23:51:04.945Z,15.10
2023-04-29T23:53:54.161Z,15.02
2023-04-29T23:56:29.145Z,14.95
2023-04-29T23:58:59.113Z,15.05
